Time;durP1;ratioP1;P1;durP2;ratioP2;P2;SDS_P1;SDS_P2;PMS_P1;PMS_P2;Temp;Humidity;BMP_temperature;BMP_pressure;BME280_temperature;BME280_humidity;BME280_pressure;Samples;Min_cycle;Max_cycle;Signal;HPM_P1;HPM_P2
2021/08/11 00:00:05;;;;;;;12.80;7.83;;;15.20;99.90;;;;;;5009073;28;20424;-58
2021/08/11 00:02:34;;;;;;;12.10;8.10;;;15.20;99.90;;;;;;5011294;28;20434;-58
2021/08/11 00:05:05;;;;;;;10.33;7.67;;;15.20;99.90;;;;;;5010046;28;20465;-57
2021/08/11 00:07:37;;;;;;;12.40;7.70;;;15.20;99.90;;;;;;5010720;28;20423;-56
2021/08/11 00:10:07;;;;;;;12.37;8.10;;;15.20;99.90;;;;;;5010465;28;20531;-57
2021/08/11 00:12:36;;;;;;;11.40;7.57;;;15.10;99.90;;;;;;5009767;28;20451;-57
2021/08/11 00:15:02;;;;;;;12.03;7.40;;;15.10;99.90;;;;;;5010631;28;20412;-57
2021/08/11 00:17:30;;;;;;;12.53;7.60;;;15.10;99.90;;;;;;5010182;28;21001;-56
2021/08/11 00:19:59;;;;;;;10.90;7.90;;;15.10;99.90;;;;;;5009609;28;20503;-57
2021/08/11 00:22:33;;;;;;;11.90;8.60;;;15.10;99.90;;;;;;5010741;28;20404;-57
2021/08/11 00:25:05;;;;;;;11.03;7.33;;;15.00;99.90;;;;;;5010709;28;20424;-55
2021/08/11 00:27:51;;;;;;;10.30;7.50;;;15.00;99.90;;;;;;5009090;28;20780;-55
2021/08/11 00:30:39;;;;;;;14.07;8.10;;;15.00;99.90;;;;;;5010373;28;20422;-58
2021/08/11 00:33:32;;;;;;;13.57;7.83;;;14.90;99.90;;;;;;5010936;28;20412;-58
2021/08/11 00:36:24;;;;;;;12.73;8.30;;;14.90;99.90;;;;;;5009520;28;20562;-56
2021/08/11 00:38:49;;;;;;;13.20;7.77;;;14.90;99.90;;;;;;5007554;28;20542;-55
2021/08/11 00:41:44;;;;;;;;;;;;;;;;;;;;;
2021/08/11 00:44:16;;;;;;;13.10;8.30;;;14.80;99.90;;;;;;5009743;28;20229;-56
2021/08/11 00:46:50;;;;;;;14.00;8.93;;;14.80;99.90;;;;;;5010353;28;20470;-55
2021/08/11 00:49:22;;;;;;;15.83;8.10;;;14.80;99.90;;;;;;5019552;28;20502;-58
2021/08/11 00:51:53;;;;;;;13.70;8.93;;;14.80;99.90;;;;;;5009435;28;20768;-56
2021/08/11 00:54:22;;;;;;;10.93;8.27;;;14.70;99.90;;;;;;5010628;28;20857;-57
2021/08/11 00:56:53;;;;;;;10.00;7.60;;;14.70;99.90;;;;;;5009578;28;21039;-56
2021/08/11 00:59:27;;;;;;;14.77;9.40;;;14.70;99.90;;;;;;5008691;28;20462;-57
2021/08/11 01:01:53;;;;;;;12.27;7.80;;;14.70;99.90;;;;;;5008501;28;20507;-58
2021/08/11 01:04:29;;;;;;;11.50;8.13;;;14.60;99.90;;;;;;5009764;28;20431;-56
2021/08/11 01:07:23;;;;;;;10.73;8.00;;;14.60;99.90;;;;;;5009877;28;20459;-58
2021/08/11 01:10:24;;;;;;;10.83;7.03;;;14.60;99.90;;;;;;5005358;28;20888;-58
2021/08/11 01:12:53;;;;;;;12.20;7.47;;;14.60;99.90;;;;;;4998828;28;20410;-57
2021/08/11 01:15:32;;;;;;;12.83;7.83;;;14.60;99.90;;;;;;5010130;28;20411;-56
2021/08/11 01:18:01;;;;;;;12.47;7.90;;;14.60;99.90;;;;;;5007239;28;20589;-56
2021/08/11 01:20:28;;;;;;;11.30;7.63;;;14.50;99.90;;;;;;4991736;28;20408;-55
2021/08/11 01:23:20;;;;;;;12.70;7.13;;;14.50;99.90;;;;;;5007976;28;20605;-58
2021/08/11 01:25:51;;;;;;;13.03;8.77;;;14.50;99.90;;;;;;5009261;28;20418;-56
2021/08/11 01:28:46;;;;;;;9.87;6.70;;;14.50;99.90;;;;;;5023421;28;20426;-58
2021/08/11 01:31:41;;;;;;;10.80;7.13;;;14.50;99.90;;;;;;4990294;28;20397;-56
2021/08/11 01:34:42;;;;;;;9.33;7.00;;;14.40;99.90;;;;;;5007536;28;20915;-57
2021/08/11 01:37:22;;;;;;;;;;;;;;;;;;;;;
2021/08/11 01:40:14;;;;;;;10.03;7.50;;;14.40;99.90;;;;;;5006477;28;20912;-57
2021/08/11 01:42:41;;;;;;;11.27;7.90;;;14.30;99.90;;;;;;5008457;28;20432;-57
2021/08/11 01:45:15;;;;;;;12.27;6.93;;;14.30;99.90;;;;;;5008160;28;20462;-58
2021/08/11 01:47:47;;;;;;;10.43;7.23;;;14.30;99.90;;;;;;5007026;28;20446;-58
2021/08/11 01:50:39;;;;;;;9.90;7.73;;;14.30;99.90;;;;;;5002124;28;20523;-56
2021/08/11 01:53:30;;;;;;;10.97;7.77;;;14.30;99.90;;;;;;4992416;28;20518;-55
2021/08/11 01:56:02;;;;;;;12.03;8.33;;;14.20;99.90;;;;;;5009174;28;20501;-56
2021/08/11 01:58:51;;;;;;;10.03;7.43;;;14.20;99.90;;;;;;5003907;28;20452;-54
2021/08/11 02:01:19;;;;;;;10.33;6.40;;;14.20;99.90;;;;;;4998580;28;20427;-56
2021/08/11 02:03:48;;;;;;;10.77;7.13;;;14.10;99.90;;;;;;5004928;28;21394;-56
2021/08/11 02:06:28;;;;;;;11.23;7.67;;;14.10;99.90;;;;;;5001516;28;20517;-58
2021/08/11 02:09:09;;;;;;;13.97;8.13;;;14.10;99.90;;;;;;5005445;28;20427;-57
2021/08/11 02:11:38;;;;;;;14.13;6.90;;;14.10;99.90;;;;;;5007294;28;21082;-57
2021/08/11 02:14:10;;;;;;;11.67;7.97;;;14.10;99.90;;;;;;5008699;28;20502;-55
2021/08/11 02:16:39;;;;;;;12.53;6.83;;;14.00;99.90;;;;;;5006917;28;20525;-55
2021/08/11 02:19:27;;;;;;;9.40;7.10;;;14.00;99.90;;;;;;5007514;28;20435;-54
2021/08/11 02:21:54;;;;;;;16.10;7.37;;;14.00;99.90;;;;;;5009520;28;20939;-55
2021/08/11 02:24:23;;;;;;;9.87;6.70;;;14.00;99.90;;;;;;5008547;28;20499;-56
2021/08/11 02:27:16;;;;;;;12.13;7.00;;;14.00;99.90;;;;;;5008638;28;20920;-57
2021/08/11 02:29:51;;;;;;;15.27;8.20;;;14.00;99.90;;;;;;4989274;28;20404;-56
2021/08/11 02:32:39;;;;;;;11.57;6.50;;;14.00;99.90;;;;;;5004536;28;20419;-54
2021/08/11 02:35:19;;;;;;;10.43;6.67;;;13.90;99.90;;;;;;5008669;28;20796;-57
2021/08/11 02:38:03;;;;;;;9.57;6.97;;;13.90;99.90;;;;;;5006746;28;20558;-56
2021/08/11 02:41:05;;;;;;;13.30;7.37;;;14.00;99.90;;;;;;5007283;28;20461;-55
2021/08/11 02:43:34;;;;;;;9.37;6.40;;;13.90;99.90;;;;;;4982104;28;20934;-56
2021/08/11 02:46:17;;;;;;;11.27;6.80;;;13.90;99.90;;;;;;5007652;28;20482;-57
2021/08/11 02:49:12;;;;;;;7.10;6.17;;;13.90;99.90;;;;;;5007414;28;20865;-56
2021/08/11 02:51:42;;;;;;;9.97;6.67;;;13.90;99.90;;;;;;5008355;28;20457;-57
2021/08/11 02:54:14;;;;;;;9.67;6.20;;;13.90;99.90;;;;;;5008136;28;20474;-58
2021/08/11 02:56:47;;;;;;;8.10;6.67;;;13.90;99.90;;;;;;5018071;23;21586;-59
2021/08/11 02:59:45;;;;;;;12.10;6.90;;;13.80;99.90;;;;;;5005815;28;20502;-59
2021/08/11 03:02:16;;;;;;;16.63;7.43;;;13.80;99.90;;;;;;5008311;28;20427;-60
2021/08/11 03:04:45;;;;;;;12.27;7.43;;;13.80;99.90;;;;;;5006260;28;20847;-59
2021/08/11 03:07:14;;;;;;;16.20;6.00;;;13.80;99.90;;;;;;5011080;28;20439;-60
2021/08/11 03:10:00;;;;;;;11.57;6.63;;;13.80;99.90;;;;;;5010895;28;20510;-60
2021/08/11 03:12:27;;;;;;;9.40;6.90;;;13.80;99.90;;;;;;5011361;28;20811;-58
2021/08/11 03:15:02;;;;;;;10.40;6.13;;;13.80;99.90;;;;;;4997821;28;20413;-60
2021/08/11 03:17:37;;;;;;;10.10;6.90;;;13.70;99.90;;;;;;5019101;28;20545;-60
2021/08/11 03:20:09;;;;;;;8.03;5.90;;;13.70;99.90;;;;;;5011120;28;21071;-60
2021/08/11 03:22:35;;;;;;;9.93;6.23;;;13.70;99.90;;;;;;5010798;28;20495;-58
2021/08/11 03:25:01;;;;;;;9.43;6.27;;;13.70;99.90;;;;;;5011266;28;20494;-59
2021/08/11 03:27:29;;;;;;;6.67;5.60;;;13.60;99.90;;;;;;5010254;28;20731;-58
2021/08/11 03:30:06;;;;;;;9.67;6.17;;;13.60;99.90;;;;;;5011404;28;20702;-58
2021/08/11 03:35:25;;;;;;;8.57;6.07;;;13.60;99.90;;;;;;4984418;28;20430;-57
2021/08/11 03:37:52;;;;;;;9.50;6.40;;;13.60;99.90;;;;;;5008158;28;20458;-59
2021/08/11 03:40:17;;;;;;;8.27;6.57;;;13.60;99.90;;;;;;5003921;28;20493;-60
2021/08/11 03:42:43;;;;;;;14.13;6.50;;;13.60;99.90;;;;;;5008449;28;20415;-60
2021/08/11 03:45:09;;;;;;;10.03;7.00;;;13.60;99.90;;;;;;5009137;28;20255;-58
2021/08/11 03:47:39;;;;;;;11.20;6.40;;;13.60;99.90;;;;;;5015239;28;20279;-58
2021/08/11 03:50:05;;;;;;;12.50;6.90;;;13.70;99.90;;;;;;5010385;28;20176;-58
2021/08/11 03:52:31;;;;;;;13.10;7.30;;;13.70;99.90;;;;;;5010552;28;20429;-59
2021/08/11 03:54:57;;;;;;;9.93;6.93;;;13.70;99.90;;;;;;5007579;28;20189;-58
2021/08/11 03:57:22;;;;;;;16.53;7.10;;;13.70;99.90;;;;;;5006287;28;20850;-58
2021/08/11 03:59:51;;;;;;;10.77;6.47;;;13.70;99.90;;;;;;5009634;28;20173;-58
2021/08/11 04:02:16;;;;;;;8.80;6.30;;;13.70;99.90;;;;;;4999270;28;20177;-58
2021/08/11 04:04:42;;;;;;;12.60;6.63;;;13.70;99.90;;;;;;4999415;28;20526;-59
2021/08/11 04:07:07;;;;;;;10.30;6.63;;;13.70;99.90;;;;;;5010729;28;20338;-59
2021/08/11 04:09:33;;;;;;;12.33;6.80;;;13.70;99.90;;;;;;5008229;28;20264;-58
2021/08/11 04:11:59;;;;;;;7.93;6.40;;;13.70;99.90;;;;;;5009726;28;20203;-58
2021/08/11 04:14:24;;;;;;;8.73;6.40;;;13.70;99.90;;;;;;5009846;28;20275;-59
2021/08/11 04:16:50;;;;;;;9.53;5.80;;;13.70;99.90;;;;;;5017396;28;20204;-59
2021/08/11 04:19:15;;;;;;;10.80;6.33;;;13.70;99.90;;;;;;5007685;28;20255;-58
2021/08/11 04:21:41;;;;;;;8.03;6.27;;;13.70;99.90;;;;;;5008742;28;20177;-58
2021/08/11 04:24:07;;;;;;;8.27;6.43;;;13.70;99.90;;;;;;5004433;28;20228;-58
2021/08/11 04:26:32;;;;;;;8.07;6.27;;;13.60;99.90;;;;;;5003271;28;20678;-59
2021/08/11 04:29:00;;;;;;;11.47;6.60;;;13.60;99.90;;;;;;4989983;28;20193;-58
2021/08/11 04:31:26;;;;;;;12.03;6.87;;;13.60;99.90;;;;;;5006134;28;20193;-58
2021/08/11 04:33:52;;;;;;;10.90;6.30;;;13.60;99.90;;;;;;5009835;28;20477;-58
2021/08/11 04:36:17;;;;;;;7.87;6.60;;;13.60;99.90;;;;;;5008746;28;20191;-60
2021/08/11 04:38:43;;;;;;;9.57;6.60;;;13.50;99.90;;;;;;5010703;28;20272;-58
2021/08/11 04:41:08;;;;;;;9.63;6.60;;;13.50;99.90;;;;;;5009741;28;20178;-58
2021/08/11 04:43:34;;;;;;;9.90;6.57;;;13.50;99.90;;;;;;5010023;28;20169;-59
2021/08/11 04:46:00;;;;;;;14.10;6.60;;;13.50;99.90;;;;;;5022154;28;20186;-60
2021/08/11 04:48:25;;;;;;;10.33;6.63;;;13.50;99.90;;;;;;5008449;28;20196;-58
2021/08/11 04:50:51;;;;;;;9.83;6.40;;;13.50;99.90;;;;;;5008973;28;20196;-58
2021/08/11 04:53:17;;;;;;;7.77;5.97;;;13.50;99.90;;;;;;5009010;28;20249;-60
2021/08/11 04:55:42;;;;;;;10.63;6.50;;;13.50;99.90;;;;;;5000941;28;20188;-59
2021/08/11 04:58:08;;;;;;;10.80;6.20;;;13.60;99.90;;;;;;5010365;28;20208;-59
2021/08/11 05:00:33;;;;;;;11.23;6.13;;;13.60;99.90;;;;;;5011290;28;20633;-61
2021/08/11 05:02:59;;;;;;;14.40;6.50;;;13.60;99.90;;;;;;5009688;28;20176;-59
2021/08/11 05:05:25;;;;;;;9.47;6.60;;;13.70;99.90;;;;;;5006834;28;20673;-59
2021/08/11 05:07:52;;;;;;;13.00;6.03;;;13.70;99.90;;;;;;5009698;28;20200;-59
2021/08/11 05:10:18;;;;;;;8.90;6.17;;;13.80;99.90;;;;;;5004770;28;20251;-59
2021/08/11 05:12:44;;;;;;;12.27;6.20;;;13.80;99.90;;;;;;4990419;28;20419;-60
2021/08/11 05:15:10;;;;;;;10.83;7.10;;;13.90;99.90;;;;;;4997515;28;20423;-60
2021/08/11 05:17:36;;;;;;;8.67;6.03;;;13.90;99.90;;;;;;5007344;28;20248;-59
2021/08/11 05:20:03;;;;;;;10.13;6.20;;;14.00;99.90;;;;;;4999771;28;20408;-59
2021/08/11 05:22:29;;;;;;;14.23;6.20;;;14.00;99.90;;;;;;4989527;28;20274;-59
2021/08/11 05:24:54;;;;;;;13.10;6.80;;;14.10;99.90;;;;;;4995744;28;20471;-59
2021/08/11 05:27:21;;;;;;;10.30;5.53;;;14.10;99.90;;;;;;5008974;28;20463;-59
2021/08/11 05:29:46;;;;;;;8.57;6.10;;;14.20;99.90;;;;;;4998121;28;20230;-59
2021/08/11 05:32:13;;;;;;;9.80;5.87;;;14.30;99.90;;;;;;5027799;28;20457;-59
2021/08/11 05:34:39;;;;;;;6.80;5.37;;;14.30;99.90;;;;;;5026841;28;20174;-59
2021/08/11 05:37:05;;;;;;;9.30;6.17;;;14.40;99.90;;;;;;5007941;28;20549;-60
2021/08/11 05:39:30;;;;;;;10.43;6.97;;;14.50;99.90;;;;;;5007473;28;20246;-59
2021/08/11 05:41:57;;;;;;;7.97;5.13;;;14.50;99.90;;;;;;5008862;28;20173;-59
2021/08/11 05:44:23;;;;;;;9.67;5.63;;;14.50;99.90;;;;;;5009698;28;20259;-61
2021/08/11 05:46:48;;;;;;;7.63;6.07;;;14.60;99.90;;;;;;5020909;28;20543;-60
2021/08/11 05:49:14;;;;;;;12.50;6.53;;;14.70;99.90;;;;;;5007342;28;20169;-60
2021/08/11 05:51:40;;;;;;;11.43;6.10;;;14.70;99.90;;;;;;5008242;28;20267;-60
2021/08/11 05:54:06;;;;;;;13.77;6.67;;;14.70;99.90;;;;;;5001363;28;20177;-60
2021/08/11 05:56:32;;;;;;;13.50;5.50;;;14.70;99.90;;;;;;4993695;28;20567;-60
2021/08/11 05:58:58;;;;;;;8.90;5.57;;;14.70;99.90;;;;;;5008276;28;20475;-60
2021/08/11 06:01:25;;;;;;;15.10;7.47;;;14.70;99.90;;;;;;5006836;28;20467;-60
2021/08/11 06:04:00;;;;;;;8.23;6.50;;;14.70;99.90;;;;;;5008117;28;20689;-60
2021/08/11 06:06:27;;;;;;;5.97;4.93;;;14.80;99.90;;;;;;5025384;28;20426;-60
2021/08/11 06:08:54;;;;;;;7.70;5.57;;;14.90;99.90;;;;;;5007454;28;20435;-60
2021/08/11 06:11:20;;;;;;;7.73;5.77;;;14.90;99.90;;;;;;5008399;28;20400;-60
2021/08/11 06:13:45;;;;;;;9.33;5.53;;;15.00;99.90;;;;;;5007765;28;20481;-59
2021/08/11 06:16:11;;;;;;;10.77;6.00;;;15.10;99.90;;;;;;5024525;28;20191;-60
2021/08/11 06:18:37;;;;;;;12.73;6.30;;;15.20;99.90;;;;;;5003106;28;20205;-59
2021/08/11 06:21:03;;;;;;;8.43;6.20;;;15.30;99.90;;;;;;4989022;28;20172;-60
2021/08/11 06:23:29;;;;;;;6.90;5.60;;;15.40;99.90;;;;;;5000568;28;20382;-60
2021/08/11 06:25:55;;;;;;;6.43;5.17;;;15.50;99.90;;;;;;4999652;28;20459;-59
2021/08/11 06:28:20;;;;;;;12.00;6.37;;;15.60;99.90;;;;;;5007031;28;20786;-61
2021/08/11 06:30:46;;;;;;;9.57;5.73;;;15.70;99.90;;;;;;5007425;28;20645;-59
2021/08/11 06:33:12;;;;;;;7.93;5.50;;;15.80;99.90;;;;;;5009361;28;20184;-60
2021/08/11 06:35:37;;;;;;;9.37;5.80;;;15.80;99.90;;;;;;5004980;28;20263;-60
2021/08/11 06:38:03;;;;;;;9.97;5.50;;;15.90;99.90;;;;;;5013562;28;20208;-60
2021/08/11 06:40:30;;;;;;;10.63;5.57;;;16.00;99.90;;;;;;5014482;28;20168;-60
2021/08/11 06:42:56;;;;;;;10.43;6.20;;;16.10;99.90;;;;;;5014174;28;20458;-60
2021/08/11 06:45:22;;;;;;;9.03;5.97;;;16.20;99.90;;;;;;5008976;28;20481;-59
2021/08/11 06:47:48;;;;;;;10.43;6.33;;;16.40;99.90;;;;;;5010760;28;20501;-59
2021/08/11 06:50:14;;;;;;;12.03;5.93;;;16.40;99.90;;;;;;5010381;28;20812;-59
2021/08/11 06:52:40;;;;;;;9.03;5.80;;;16.50;99.90;;;;;;5012282;28;20186;-59
2021/08/11 06:55:11;;;;;;;6.37;5.37;;;16.60;99.90;;;;;;5031660;28;20475;-58
2021/08/11 06:57:37;;;;;;;9.57;5.63;;;16.70;99.90;;;;;;5020238;28;20370;-59
2021/08/11 07:00:05;;;;;;;7.60;5.00;;;16.80;99.90;;;;;;5000238;28;22325;-59
2021/08/11 07:02:30;;;;;;;11.30;7.37;;;16.90;99.90;;;;;;5010070;28;20213;-59
2021/08/11 07:04:56;;;;;;;8.17;6.17;;;17.00;99.90;;;;;;4994716;28;20447;-57
2021/08/11 07:07:22;;;;;;;7.97;5.30;;;17.10;99.90;;;;;;4996408;28;20204;-58
2021/08/11 07:09:47;;;;;;;9.73;5.97;;;17.20;99.90;;;;;;5004538;28;20786;-58
2021/08/11 07:12:13;;;;;;;8.27;5.80;;;17.30;99.90;;;;;;5008698;28;20176;-58
2021/08/11 07:14:38;;;;;;;10.67;6.73;;;17.50;99.90;;;;;;5004204;28;20340;-59
2021/08/11 07:17:04;;;;;;;11.40;6.63;;;17.70;99.90;;;;;;5009105;28;20267;-59
2021/08/11 07:19:32;;;;;;;7.20;5.17;;;17.80;99.90;;;;;;5007040;28;20215;-58
2021/08/11 07:21:58;;;;;;;8.00;5.80;;;17.90;99.90;;;;;;5009106;28;20194;-58
2021/08/11 07:24:23;;;;;;;11.43;5.93;;;18.00;99.90;;;;;;5006830;28;20444;-57
2021/08/11 07:26:49;;;;;;;10.80;5.10;;;18.10;99.90;;;;;;5002247;28;20197;-57
2021/08/11 07:29:14;;;;;;;7.00;5.50;;;18.10;99.90;;;;;;5008361;28;20187;-57
2021/08/11 07:31:40;;;;;;;11.33;5.13;;;18.30;99.90;;;;;;5007297;28;20196;-59
2021/08/11 07:34:06;;;;;;;8.57;5.20;;;18.40;99.90;;;;;;5010027;28;20302;-58
2021/08/11 07:36:31;;;;;;;8.17;5.37;;;18.60;99.90;;;;;;5006412;28;20176;-57
2021/08/11 07:38:57;;;;;;;8.07;5.50;;;18.70;99.90;;;;;;5003278;28;20566;-56
2021/08/11 07:41:23;;;;;;;12.07;5.20;;;18.70;99.90;;;;;;5007189;28;20173;-58
2021/08/11 07:43:48;;;;;;;9.40;5.27;;;18.80;99.90;;;;;;5004229;28;20521;-58
2021/08/11 07:46:14;;;;;;;9.10;5.43;;;18.80;99.90;;;;;;5004285;28;20774;-57
2021/08/11 07:48:40;;;;;;;12.90;5.90;;;18.80;99.90;;;;;;5005386;28;20192;-56
2021/08/11 07:51:05;;;;;;;8.33;5.40;;;18.90;99.90;;;;;;5021060;28;20267;-58
2021/08/11 07:53:32;;;;;;;10.10;5.83;;;18.90;99.90;;;;;;5004239;28;20291;-56
2021/08/11 07:55:57;;;;;;;9.80;5.60;;;19.00;99.90;;;;;;5004767;28;20273;-56
2021/08/11 07:58:25;;;;;;;7.43;5.60;;;19.10;99.90;;;;;;5006582;28;20502;-56
2021/08/11 08:00:51;;;;;;;15.33;5.50;;;19.20;99.90;;;;;;5004283;28;20656;-58
2021/08/11 08:03:17;;;;;;;9.47;6.20;;;19.30;99.90;;;;;;5002492;28;20450;-57
2021/08/11 08:05:43;;;;;;;8.87;5.97;;;19.50;99.90;;;;;;4998275;28;20439;-58
2021/08/11 08:08:09;;;;;;;6.33;5.30;;;19.60;99.90;;;;;;4999939;28;20456;-57
2021/08/11 08:10:35;;;;;;;6.43;5.47;;;19.70;99.50;;;;;;5002277;28;20649;-59
2021/08/11 08:13:01;;;;;;;7.63;5.83;;;19.80;99.90;;;;;;5000697;28;20204;-58
2021/08/11 08:15:28;;;;;;;8.77;5.63;;;19.90;99.60;;;;;;5014400;28;20458;-60
2021/08/11 08:17:54;;;;;;;7.23;5.63;;;20.00;98.60;;;;;;5006389;28;20200;-59
2021/08/11 08:20:20;;;;;;;8.40;5.67;;;20.10;98.40;;;;;;5002886;28;20431;-59
2021/08/11 08:22:48;;;;;;;11.90;8.23;;;20.20;98.10;;;;;;4997742;28;22191;-58
2021/08/11 08:25:19;;;;;;;13.20;5.90;;;20.30;98.60;;;;;;4993409;28;20189;-59
2021/08/11 08:27:45;;;;;;;8.70;5.10;;;20.40;98.60;;;;;;4992396;28;21598;-60
2021/08/11 08:30:11;;;;;;;12.10;6.17;;;20.50;97.60;;;;;;5001780;28;20539;-61
2021/08/11 08:32:37;;;;;;;8.93;5.20;;;20.60;98.70;;;;;;5004502;28;20225;-60
2021/08/11 08:35:03;;;;;;;11.67;5.77;;;20.70;99.40;;;;;;4999881;28;20213;-61
2021/08/11 08:37:36;;;;;;;9.73;5.80;;;20.80;99.50;;;;;;4995276;28;20212;-61
2021/08/11 08:40:11;;;;;;;10.20;6.20;;;21.00;99.80;;;;;;5002101;28;20450;-62
2021/08/11 08:42:38;;;;;;;10.60;5.57;;;21.10;99.20;;;;;;4998801;28;20438;-60
2021/08/11 08:45:05;;;;;;;7.03;5.87;;;21.30;98.50;;;;;;4999176;28;20987;-61
2021/08/11 08:47:32;;;;;;;8.63;5.60;;;21.40;97.50;;;;;;5006595;28;20792;-62
2021/08/11 08:50:00;;;;;;;16.13;6.00;;;21.40;97.40;;;;;;5005214;28;20467;-62
2021/08/11 08:52:27;;;;;;;11.60;5.90;;;21.60;95.70;;;;;;5008788;28;20862;-61
2021/08/11 08:54:57;;;;;;;10.80;6.20;;;21.60;94.50;;;;;;5005439;28;20446;-61
2021/08/11 08:57:23;;;;;;;5.33;4.70;;;21.70;94.30;;;;;;5025343;23;20499;-59
2021/08/11 08:59:49;;;;;;;8.27;4.97;;;21.80;92.90;;;;;;5004336;28;20517;-59
2021/08/11 09:02:15;;;;;;;6.30;4.83;;;21.80;92.70;;;;;;5004163;28;20203;-60
2021/08/11 09:04:41;;;;;;;7.57;5.60;;;21.90;92.40;;;;;;4997578;28;20349;-59
2021/08/11 09:07:19;;;;;;;10.13;5.73;;;22.00;92.00;;;;;;4999935;28;20505;-60
2021/08/11 09:09:45;;;;;;;8.17;4.83;;;22.10;85.00;;;;;;5003301;28;20464;-59
2021/08/11 09:12:16;;;;;;;7.77;4.87;;;22.20;83.40;;;;;;5003723;28;21113;-59
2021/08/11 09:14:45;;;;;;;10.43;5.37;;;22.30;82.20;;;;;;5003093;28;20954;-60
2021/08/11 09:17:30;;;;;;;6.40;4.50;;;22.40;76.90;;;;;;5002280;28;20956;-59
2021/08/11 09:19:56;;;;;;;11.63;4.97;;;22.50;78.70;;;;;;5004774;28;20439;-60
2021/08/11 09:22:22;;;;;;;5.73;4.90;;;22.60;79.00;;;;;;4990342;28;20446;-60
2021/08/11 09:25:01;;;;;;;8.20;5.33;;;22.80;74.00;;;;;;4991444;28;20188;-60
2021/08/11 09:27:27;;;;;;;11.33;5.00;;;22.80;73.40;;;;;;4996482;28;20243;-60
2021/08/11 09:30:14;;;;;;;8.53;5.20;;;22.90;73.30;;;;;;4990587;28;20535;-60
2021/08/11 09:32:56;;;;;;;6.07;4.90;;;23.10;69.00;;;;;;5000366;28;20176;-60
2021/08/11 09:35:23;;;;;;;8.37;4.97;;;23.10;68.00;;;;;;5002205;28;20431;-61
2021/08/11 09:37:49;;;;;;;7.70;5.20;;;23.20;66.20;;;;;;5007057;28;20478;-60
2021/08/11 09:40:21;;;;;;;9.03;5.30;;;23.20;66.30;;;;;;5007957;28;20436;-60
2021/08/11 09:42:51;;;;;;;9.17;5.60;;;23.30;64.10;;;;;;5002398;28;20470;-61
2021/08/11 09:45:16;;;;;;;7.27;5.77;;;23.40;63.50;;;;;;5011058;28;20442;-60
2021/08/11 09:48:03;;;;;;;7.30;5.57;;;23.50;62.90;;;;;;5010312;28;20463;-61
2021/08/11 09:50:39;;;;;;;5.93;5.30;;;23.50;63.70;;;;;;5007766;28;20176;-60
2021/08/11 09:53:06;;;;;;;7.87;5.70;;;23.70;65.70;;;;;;5007986;28;20462;-60
2021/08/11 09:56:06;;;;;;;8.20;5.83;;;23.80;66.60;;;;;;5006789;28;20431;-61
2021/08/11 09:58:37;;;;;;;7.87;5.90;;;24.00;65.10;;;;;;5004381;28;20996;-60
2021/08/11 10:01:06;;;;;;;8.80;5.70;;;24.20;64.80;;;;;;4999157;28;20444;-61
2021/08/11 10:03:33;;;;;;;9.10;6.20;;;24.30;63.20;;;;;;5007001;28;20461;-60
2021/08/11 10:06:00;;;;;;;6.77;4.83;;;24.30;61.80;;;;;;5004008;28;20443;-60
2021/08/11 10:08:30;;;;;;;8.20;5.80;;;24.40;61.80;;;;;;4996004;28;20494;-60
2021/08/11 10:10:57;;;;;;;9.60;5.37;;;24.40;61.20;;;;;;4999127;28;20467;-60
2021/08/11 10:13:23;;;;;;;8.07;5.30;;;24.60;61.80;;;;;;5000475;28;20450;-61
2021/08/11 10:15:50;;;;;;;9.30;5.70;;;24.70;61.40;;;;;;4999843;28;20450;-60
2021/08/11 10:18:27;;;;;;;8.03;5.70;;;24.80;63.10;;;;;;5000499;28;20490;-60
2021/08/11 10:20:55;;;;;;;7.47;5.60;;;25.00;62.20;;;;;;5000157;28;20458;-60
2021/08/11 10:23:21;;;;;;;8.97;6.07;;;25.10;59.30;;;;;;5000815;28;20480;-60
2021/08/11 10:25:49;;;;;;;7.00;5.40;;;24.90;59.40;;;;;;5001827;28;20424;-60
2021/08/11 10:28:22;;;;;;;6.03;5.17;;;24.90;59.60;;;;;;5008046;28;21006;-61
2021/08/11 10:30:52;;;;;;;8.30;5.70;;;25.00;62.10;;;;;;5003501;28;20488;-60
2021/08/11 10:33:19;;;;;;;5.80;5.13;;;25.20;64.00;;;;;;4999084;28;20807;-60
2021/08/11 10:35:46;;;;;;;9.30;5.90;;;25.30;60.60;;;;;;5003297;28;21018;-60
2021/08/11 10:38:14;;;;;;;7.17;6.10;;;25.40;61.00;;;;;;5000880;28;20524;-60
2021/08/11 10:40:42;;;;;;;7.97;5.63;;;25.40;58.90;;;;;;4996817;28;20451;-60
2021/08/11 10:43:11;;;;;;;7.17;5.93;;;25.50;59.50;;;;;;5004144;28;20928;-60
2021/08/11 10:45:37;;;;;;;9.87;5.80;;;25.60;58.10;;;;;;5005694;28;20439;-60
2021/08/11 10:48:15;;;;;;;7.13;5.80;;;25.80;58.80;;;;;;4999063;28;20478;-60
2021/08/11 10:50:42;;;;;;;9.70;6.50;;;26.00;56.90;;;;;;5000295;28;20462;-60
2021/08/11 10:53:09;;;;;;;12.20;6.13;;;26.00;56.10;;;;;;4999293;28;20477;-60
2021/08/11 10:55:47;;;;;;;6.80;5.70;;;26.10;56.70;;;;;;5000700;28;20427;-60
2021/08/11 10:58:36;;;;;;;9.97;6.60;;;26.20;56.80;;;;;;4999427;28;20505;-61
2021/08/11 11:01:03;;;;;;;11.90;6.10;;;26.30;55.70;;;;;;4993050;28;20828;-61
2021/08/11 11:03:51;;;;;;;8.13;6.03;;;26.50;56.10;;;;;;5000210;28;20560;-60
2021/08/11 11:06:18;;;;;;;8.27;5.90;;;26.70;55.90;;;;;;5000601;28;20431;-60
2021/08/11 11:08:44;;;;;;;10.23;6.30;;;26.80;55.70;;;;;;5001472;28;20505;-60
2021/08/11 11:11:28;;;;;;;7.87;6.10;;;26.80;55.40;;;;;;5006861;28;20945;-60
2021/08/11 11:13:54;;;;;;;6.77;6.07;;;26.90;55.60;;;;;;5000123;28;20267;-60
2021/08/11 11:16:20;;;;;;;6.80;6.10;;;26.90;53.70;;;;;;5005335;28;21137;-59
2021/08/11 11:19:05;;;;;;;10.73;6.67;;;26.80;55.50;;;;;;5007265;28;20470;-60
2021/08/11 11:21:32;;;;;;;7.10;6.13;;;26.90;55.50;;;;;;5009501;28;20594;-60
2021/08/11 11:23:57;;;;;;;8.10;5.37;;;27.10;54.10;;;;;;5007983;28;20438;-60
2021/08/11 11:26:34;;;;;;;7.07;5.70;;;27.20;54.70;;;;;;5010528;28;20438;-60
2021/08/11 11:29:09;;;;;;;11.03;6.67;;;27.20;52.40;;;;;;5008728;28;20207;-60
2021/08/11 11:31:37;;;;;;;8.10;6.50;;;27.00;53.20;;;;;;4999794;28;20435;-59
2021/08/11 11:34:29;;;;;;;11.50;6.37;;;27.10;55.60;;;;;;5004973;28;20434;-59
2021/08/11 11:36:54;;;;;;;7.83;6.47;;;27.10;55.30;;;;;;5004039;28;20447;-60
2021/08/11 11:39:21;;;;;;;7.97;6.13;;;26.90;55.70;;;;;;5004908;28;20473;-60
2021/08/11 11:42:11;;;;;;;8.37;5.57;;;26.80;55.70;;;;;;5003840;28;20718;-61
2021/08/11 11:45:00;;;;;;;7.33;5.70;;;26.50;55.20;;;;;;5008262;28;20509;-61
2021/08/11 11:47:41;;;;;;;12.80;6.10;;;26.30;55.90;;;;;;5007790;28;20447;-61
2021/08/11 11:50:19;;;;;;;6.87;6.07;;;26.20;55.90;;;;;;4999994;28;20441;-57
2021/08/11 11:52:49;;;;;;;9.83;6.90;;;26.20;56.20;;;;;;5006093;28;20893;-56
2021/08/11 11:55:28;;;;;;;10.23;6.13;;;26.10;55.80;;;;;;5006420;28;20427;-54
2021/08/11 11:57:55;;;;;;;7.93;6.10;;;26.00;56.10;;;;;;5006222;28;20498;-56
2021/08/11 12:00:21;;;;;;;10.40;6.13;;;26.00;56.60;;;;;;5005014;28;20434;-55
2021/08/11 12:02:51;;;;;;;7.07;6.30;;;26.20;57.30;;;;;;5011277;28;20498;-57
2021/08/11 12:05:17;;;;;;;8.17;6.33;;;26.50;55.70;;;;;;5009055;28;20423;-56
2021/08/11 12:07:43;;;;;;;8.10;5.70;;;27.00;55.70;;;;;;5007976;28;20450;-56
2021/08/11 12:10:09;;;;;;;7.57;6.07;;;27.40;55.30;;;;;;5008133;28;20435;-58
2021/08/11 12:12:35;;;;;;;9.43;6.00;;;27.80;52.20;;;;;;5009258;28;20237;-57
2021/08/11 12:15:18;;;;;;;11.07;5.83;;;28.00;50.80;;;;;;5008295;28;20505;-56
2021/08/11 12:17:44;;;;;;;9.70;6.67;;;28.30;51.30;;;;;;5007413;28;20708;-57
2021/08/11 12:20:31;;;;;;;7.97;6.10;;;28.40;50.60;;;;;;5009712;28;20473;-55
2021/08/11 12:22:58;;;;;;;7.07;5.87;;;28.40;49.90;;;;;;5008691;28;20435;-56
2021/08/11 12:25:32;;;;;;;10.47;7.20;;;28.50;50.60;;;;;;5008452;28;20168;-56
2021/08/11 12:28:15;;;;;;;11.07;6.70;;;28.60;50.20;;;;;;5009672;28;20226;-56
2021/08/11 12:30:49;;;;;;;13.27;6.53;;;28.50;49.30;;;;;;5010290;28;20200;-57
2021/08/11 12:33:17;;;;;;;12.03;6.30;;;28.20;49.30;;;;;;4999247;28;20172;-56
2021/08/11 12:35:42;;;;;;;7.00;5.90;;;27.90;50.30;;;;;;5018307;28;20177;-56
2021/08/11 12:38:08;;;;;;;8.30;6.53;;;27.60;51.00;;;;;;5001997;28;20203;-57
2021/08/11 12:40:39;;;;;;;7.90;6.07;;;27.60;52.60;;;;;;5008778;28;20234;-58
2021/08/11 12:43:07;;;;;;;8.00;6.80;;;27.60;52.10;;;;;;5009201;28;20179;-57
2021/08/11 12:46:05;;;;;;;7.60;5.90;;;27.50;52.00;;;;;;5010522;28;20164;-57
2021/08/11 12:48:33;;;;;;;8.90;6.43;;;27.30;51.80;;;;;;4969978;28;20243;-56
2021/08/11 12:51:01;;;;;;;7.93;6.30;;;27.00;51.60;;;;;;5009059;28;20934;-56
2021/08/11 12:53:29;;;;;;;6.70;5.63;;;27.00;51.90;;;;;;5007338;28;20196;-58
2021/08/11 12:56:15;;;;;;;9.30;6.30;;;27.00;51.70;;;;;;5006949;28;20534;-57
2021/08/11 12:59:04;;;;;;;8.60;6.33;;;27.00;52.80;;;;;;5006983;28;20484;-57
2021/08/11 13:01:36;;;;;;;14.80;6.10;;;26.90;53.40;;;;;;5006956;28;20433;-56
2021/08/11 13:04:05;;;;;;;10.20;6.40;;;27.00;53.00;;;;;;5009474;28;22263;-56
2021/08/11 13:06:40;;;;;;;12.07;6.77;;;27.30;52.70;;;;;;5001045;28;20430;-55